<?xml version="1.0" encoding="UTF-8" standalone="no" ?>
<gpx xmlns="http://www.topografix.com/GPX/1/1" creator="CompeGPS" version="1.1" xmlns:xsi="http://www.w3.org/2001/XMLSchema-instance" xsi:schemaLocation="http://www.topografix.com/GPX/1/1 http://www.topografix.com/GPX/1/1/gpx.xsd http://www.garmin.com/xmlschemas/GpxExtensions/v3 http://www.garmin.com/xmlschemas/GpxExtensionsv3.xsd http://www.garmin.com/xmlschemas/TrackPointExtension/v1 http://www.garmin.com/xmlschemas/TrackPointExtensionv1.xsd" xmlns:gpxtpx="http://www.garmin.com/xmlschemas/TrackPointExtension/v1">
  <metadata>
    <link href="http://www.compegps.com">
      <text>CompeGPS TEAM, SL</text>
    </link>
    <time>2020-02-29T15:43:07Z</time>
    <bounds maxlat="42.560236" maxlon="1.764748" minlat="42.531368" minlon="1.749092"/>
  </metadata>
    <wpt lat="42.560236" lon="1.764664">
    <ele>1877.0</ele>
    <time>2020-02-29T15:43:34Z</time>
    <name>Depart</name>
    <desc></desc>
    <sym>Waypoint</sym>
  </wpt>
  <wpt lat="42.541194" lon="1.750019">
    <ele>2411.9</ele>
    <time>2020-02-29T15:44:00Z</time>
    <name>Replat</name>
    <desc></desc>
    <sym>Waypoint</sym>
  </wpt>
  <wpt lat="42.533916" lon="1.751111">
    <ele>2626.1</ele>
    <time>2020-02-29T15:44:14Z</time>
    <name>Pointe inferieure</name>
    <desc></desc>
    <sym>Waypoint</sym>
  </wpt>
<trk>
    <name>pic_pedrons</name>
    <userMyTwoNav></userMyTwoNav>
    <serialNumber></serialNumber>
    <trkseg>
      <trkpt lat="42.560236" lon="1.764664">
        <ele>1894.2</ele>
        <time>2020-02-23T12:56:32Z</time>
      </trkpt>
      <trkpt lat="42.560208" lon="1.764682">
        <ele>1903.3</ele>
        <time>2020-02-23T12:57:17Z</time>
      </trkpt>
      <trkpt lat="42.560131" lon="1.764748">
        <ele>1906.4</ele>
        <time>2020-02-23T12:57:46Z</time>
      </trkpt>
      <trkpt lat="42.560056" lon="1.764713">
        <ele>1911.4</ele>
        <time>2020-02-23T12:58:00Z</time>
      </trkpt>
      <trkpt lat="42.559953" lon="1.764727">
        <ele>1915.1</ele>
        <time>2020-02-23T12:58:12Z</time>
      </trkpt>
      <trkpt lat="42.559868" lon="1.764679">
        <ele>1918.8</ele>
        <time>2020-02-23T12:58:24Z</time>
      </trkpt>
      <trkpt lat="42.559786" lon="1.764631">
        <ele>1922.7</ele>
        <time>2020-02-23T12:58:35Z</time>
      </trkpt>
      <trkpt lat="42.559680" lon="1.764610">
        <ele>1925.5</ele>
        <time>2020-02-23T12:58:45Z</time>
      </trkpt>
      <trkpt lat="42.559604" lon="1.764599">
        <ele>1929.9</ele>
        <time>2020-02-23T12:58:55Z</time>
      </trkpt>
      <trkpt lat="42.559507" lon="1.764621">
        <ele>1932.4</ele>
        <time>2020-02-23T12:59:05Z</time>
      </trkpt>
      <trkpt lat="42.559407" lon="1.764618">
        <ele>1936.4</ele>
        <time>2020-02-23T12:59:16Z</time>
      </trkpt>
      <trkpt lat="42.559311" lon="1.764586">
        <ele>1939.4</ele>
        <time>2020-02-23T12:59:27Z</time>
      </trkpt>
      <trkpt lat="42.559216" lon="1.764564">
        <ele>1943.4</ele>
        <time>2020-02-23T12:59:37Z</time>
      </trkpt>
      <trkpt lat="42.559166" lon="1.764530">
        <ele>1947.7</ele>
        <time>2020-02-23T13:02:35Z</time>
      </trkpt>
      <trkpt lat="42.559074" lon="1.764518">
        <ele>1950.5</ele>
        <time>2020-02-23T13:02:43Z</time>
      </trkpt>
      <trkpt lat="42.558968" lon="1.764494">
        <ele>1953.3</ele>
        <time>2020-02-23T13:02:53Z</time>
      </trkpt>
      <trkpt lat="42.558939" lon="1.764405">
        <ele>1957.1</ele>
        <time>2020-02-23T13:03:06Z</time>
      </trkpt>
      <trkpt lat="42.558871" lon="1.764395">
        <ele>1960.3</ele>
        <time>2020-02-23T13:03:17Z</time>
      </trkpt>
      <trkpt lat="42.558773" lon="1.764387">
        <ele>1965.1</ele>
        <time>2020-02-23T13:03:26Z</time>
      </trkpt>
      <trkpt lat="42.558703" lon="1.764393">
        <ele>1967.9</ele>
        <time>2020-02-23T13:03:34Z</time>
      </trkpt>
      <trkpt lat="42.558622" lon="1.764430">
        <ele>1970.9</ele>
        <time>2020-02-23T13:03:43Z</time>
      </trkpt>
      <trkpt lat="42.558541" lon="1.764474">
        <ele>1973.7</ele>
        <time>2020-02-23T13:03:54Z</time>
      </trkpt>
      <trkpt lat="42.558469" lon="1.764542">
        <ele>1978.4</ele>
        <time>2020-02-23T13:04:09Z</time>
      </trkpt>
      <trkpt lat="42.558402" lon="1.764455">
        <ele>1980.1</ele>
        <time>2020-02-23T13:04:18Z</time>
      </trkpt>
      <trkpt lat="42.558357" lon="1.764346">
        <ele>1983.0</ele>
        <time>2020-02-23T13:04:27Z</time>
      </trkpt>
      <trkpt lat="42.558270" lon="1.764309">
        <ele>1984.9</ele>
        <time>2020-02-23T13:04:36Z</time>
      </trkpt>
      <trkpt lat="42.558178" lon="1.764297">
        <ele>1987.8</ele>
        <time>2020-02-23T13:04:44Z</time>
      </trkpt>
      <trkpt lat="42.558078" lon="1.764259">
        <ele>1988.6</ele>
        <time>2020-02-23T13:04:52Z</time>
      </trkpt>
      <trkpt lat="42.557992" lon="1.764254">
        <ele>1991.1</ele>
        <time>2020-02-23T13:05:02Z</time>
      </trkpt>
      <trkpt lat="42.557902" lon="1.764246">
        <ele>1995.2</ele>
        <time>2020-02-23T13:05:12Z</time>
      </trkpt>
      <trkpt lat="42.557820" lon="1.764200">
        <ele>1998.4</ele>
        <time>2020-02-23T13:05:21Z</time>
      </trkpt>
      <trkpt lat="42.557732" lon="1.764140">
        <ele>2001.2</ele>
        <time>2020-02-23T13:05:30Z</time>
      </trkpt>
      <trkpt lat="42.557641" lon="1.764073">
        <ele>2003.1</ele>
        <time>2020-02-23T13:05:39Z</time>
      </trkpt>
      <trkpt lat="42.557552" lon="1.764020">
        <ele>2005.7</ele>
        <time>2020-02-23T13:05:49Z</time>
      </trkpt>
      <trkpt lat="42.557469" lon="1.763993">
        <ele>2007.4</ele>
        <time>2020-02-23T13:05:58Z</time>
      </trkpt>
      <trkpt lat="42.557374" lon="1.763956">
        <ele>2010.0</ele>
        <time>2020-02-23T13:06:07Z</time>
      </trkpt>
      <trkpt lat="42.557296" lon="1.763902">
        <ele>2012.1</ele>
        <time>2020-02-23T13:06:16Z</time>
      </trkpt>
      <trkpt lat="42.557207" lon="1.763844">
        <ele>2013.8</ele>
        <time>2020-02-23T13:06:24Z</time>
      </trkpt>
      <trkpt lat="42.557130" lon="1.763773">
        <ele>2016.7</ele>
        <time>2020-02-23T13:06:33Z</time>
      </trkpt>
      <trkpt lat="42.557052" lon="1.763731">
        <ele>2019.2</ele>
        <time>2020-02-23T13:06:42Z</time>
      </trkpt>
      <trkpt lat="42.556970" lon="1.763678">
        <ele>2022.5</ele>
        <time>2020-02-23T13:06:52Z</time>
      </trkpt>
      <trkpt lat="42.556884" lon="1.763616">
        <ele>2024.4</ele>
        <time>2020-02-23T13:07:01Z</time>
      </trkpt>
      <trkpt lat="42.556811" lon="1.763547">
        <ele>2026.1</ele>
        <time>2020-02-23T13:07:09Z</time>
      </trkpt>
      <trkpt lat="42.556729" lon="1.763479">
        <ele>2029.0</ele>
        <time>2020-02-23T13:07:17Z</time>
      </trkpt>
      <trkpt lat="42.556644" lon="1.763419">
        <ele>2031.6</ele>
        <time>2020-02-23T13:07:25Z</time>
      </trkpt>
      <trkpt lat="42.556553" lon="1.763377">
        <ele>2034.8</ele>
        <time>2020-02-23T13:07:32Z</time>
      </trkpt>
      <trkpt lat="42.556453" lon="1.763307">
        <ele>2037.6</ele>
        <time>2020-02-23T13:07:42Z</time>
      </trkpt>
      <trkpt lat="42.556368" lon="1.763246">
        <ele>2040.3</ele>
        <time>2020-02-23T13:07:53Z</time>
      </trkpt>
      <trkpt lat="42.556322" lon="1.763162">
        <ele>2042.4</ele>
        <time>2020-02-23T13:08:03Z</time>
      </trkpt>
      <trkpt lat="42.556269" lon="1.763070">
        <ele>2044.2</ele>
        <time>2020-02-23T13:08:12Z</time>
      </trkpt>
      <trkpt lat="42.556198" lon="1.762979">
        <ele>2045.7</ele>
        <time>2020-02-23T13:08:23Z</time>
      </trkpt>
      <trkpt lat="42.556166" lon="1.762887">
        <ele>2050.1</ele>
        <time>2020-02-23T13:08:33Z</time>
      </trkpt>
      <trkpt lat="42.556114" lon="1.762793">
        <ele>2052.0</ele>
        <time>2020-02-23T13:08:42Z</time>
      </trkpt>
      <trkpt lat="42.556069" lon="1.762689">
        <ele>2053.9</ele>
        <time>2020-02-23T13:08:51Z</time>
      </trkpt>
      <trkpt lat="42.556020" lon="1.762581">
        <ele>2055.7</ele>
        <time>2020-02-23T13:09:00Z</time>
      </trkpt>
      <trkpt lat="42.555980" lon="1.762466">
        <ele>2058.5</ele>
        <time>2020-02-23T13:09:09Z</time>
      </trkpt>
      <trkpt lat="42.555926" lon="1.762367">
        <ele>2060.5</ele>
        <time>2020-02-23T13:09:18Z</time>
      </trkpt>
      <trkpt lat="42.555880" lon="1.762268">
        <ele>2063.3</ele>
        <time>2020-02-23T13:09:27Z</time>
      </trkpt>
      <trkpt lat="42.555832" lon="1.762155">
        <ele>2065.2</ele>
        <time>2020-02-23T13:09:37Z</time>
      </trkpt>
      <trkpt lat="42.555790" lon="1.762045">
        <ele>2066.9</ele>
        <time>2020-02-23T13:09:47Z</time>
      </trkpt>
      <trkpt lat="42.555751" lon="1.761952">
        <ele>2069.5</ele>
        <time>2020-02-23T13:10:03Z</time>
      </trkpt>
      <trkpt lat="42.555680" lon="1.761851">
        <ele>2071.2</ele>
        <time>2020-02-23T13:10:14Z</time>
      </trkpt>
      <trkpt lat="42.555598" lon="1.761774">
        <ele>2073.0</ele>
        <time>2020-02-23T13:10:23Z</time>
      </trkpt>
      <trkpt lat="42.555521" lon="1.761698">
        <ele>2074.8</ele>
        <time>2020-02-23T13:10:32Z</time>
      </trkpt>
      <trkpt lat="42.555455" lon="1.761588">
        <ele>2076.5</ele>
        <time>2020-02-23T13:10:43Z</time>
      </trkpt>
      <trkpt lat="42.555389" lon="1.761501">
        <ele>2079.3</ele>
        <time>2020-02-23T13:10:54Z</time>
      </trkpt>
      <trkpt lat="42.555323" lon="1.761403">
        <ele>2083.1</ele>
        <time>2020-02-23T13:11:04Z</time>
      </trkpt>
      <trkpt lat="42.555253" lon="1.761315">
        <ele>2084.1</ele>
        <time>2020-02-23T13:11:21Z</time>
      </trkpt>
      <trkpt lat="42.555239" lon="1.761233">
        <ele>2087.1</ele>
        <time>2020-02-23T13:12:37Z</time>
      </trkpt>
      <trkpt lat="42.555175" lon="1.761159">
        <ele>2089.2</ele>
        <time>2020-02-23T13:12:45Z</time>
      </trkpt>
      <trkpt lat="42.555110" lon="1.761089">
        <ele>2091.0</ele>
        <time>2020-02-23T13:12:53Z</time>
      </trkpt>
      <trkpt lat="42.555051" lon="1.761012">
        <ele>2091.8</ele>
        <time>2020-02-23T13:13:01Z</time>
      </trkpt>
      <trkpt lat="42.554993" lon="1.760903">
        <ele>2093.7</ele>
        <time>2020-02-23T13:13:10Z</time>
      </trkpt>
      <trkpt lat="42.554934" lon="1.760817">
        <ele>2094.6</ele>
        <time>2020-02-23T13:13:18Z</time>
      </trkpt>
      <trkpt lat="42.554855" lon="1.760736">
        <ele>2096.4</ele>
        <time>2020-02-23T13:13:27Z</time>
      </trkpt>
      <trkpt lat="42.554769" lon="1.760656">
        <ele>2098.1</ele>
        <time>2020-02-23T13:13:36Z</time>
      </trkpt>
      <trkpt lat="42.554696" lon="1.760588">
        <ele>2099.8</ele>
        <time>2020-02-23T13:13:45Z</time>
      </trkpt>
      <trkpt lat="42.554633" lon="1.760507">
        <ele>2101.6</ele>
        <time>2020-02-23T13:13:54Z</time>
      </trkpt>
      <trkpt lat="42.554580" lon="1.760432">
        <ele>2102.6</ele>
        <time>2020-02-23T13:14:04Z</time>
      </trkpt>
      <trkpt lat="42.554522" lon="1.760347">
        <ele>2104.4</ele>
        <time>2020-02-23T13:14:36Z</time>
      </trkpt>
      <trkpt lat="42.554459" lon="1.760274">
        <ele>2105.3</ele>
        <time>2020-02-23T13:14:44Z</time>
      </trkpt>
      <trkpt lat="42.554397" lon="1.760212">
        <ele>2107.1</ele>
        <time>2020-02-23T13:14:53Z</time>
      </trkpt>
      <trkpt lat="42.554327" lon="1.760093">
        <ele>2108.9</ele>
        <time>2020-02-23T13:15:01Z</time>
      </trkpt>
      <trkpt lat="42.554254" lon="1.759981">
        <ele>2110.5</ele>
        <time>2020-02-23T13:15:10Z</time>
      </trkpt>
      <trkpt lat="42.554189" lon="1.759890">
        <ele>2112.5</ele>
        <time>2020-02-23T13:15:19Z</time>
      </trkpt>
      <trkpt lat="42.554121" lon="1.759798">
        <ele>2114.3</ele>
        <time>2020-02-23T13:15:28Z</time>
      </trkpt>
      <trkpt lat="42.554052" lon="1.759719">
        <ele>2116.0</ele>
        <time>2020-02-23T13:15:37Z</time>
      </trkpt>
      <trkpt lat="42.553978" lon="1.759635">
        <ele>2117.9</ele>
        <time>2020-02-23T13:15:45Z</time>
      </trkpt>
      <trkpt lat="42.553903" lon="1.759544">
        <ele>2120.6</ele>
        <time>2020-02-23T13:15:55Z</time>
      </trkpt>
      <trkpt lat="42.553819" lon="1.759471">
        <ele>2122.6</ele>
        <time>2020-02-23T13:16:04Z</time>
      </trkpt>
      <trkpt lat="42.553731" lon="1.759389">
        <ele>2125.5</ele>
        <time>2020-02-23T13:16:13Z</time>
      </trkpt>
      <trkpt lat="42.553645" lon="1.759330">
        <ele>2126.6</ele>
        <time>2020-02-23T13:16:23Z</time>
      </trkpt>
      <trkpt lat="42.553574" lon="1.759269">
        <ele>2128.6</ele>
        <time>2020-02-23T13:16:33Z</time>
      </trkpt>
      <trkpt lat="42.553495" lon="1.759219">
        <ele>2130.4</ele>
        <time>2020-02-23T13:16:42Z</time>
      </trkpt>
      <trkpt lat="42.553424" lon="1.759139">
        <ele>2133.1</ele>
        <time>2020-02-23T13:16:50Z</time>
      </trkpt>
      <trkpt lat="42.553342" lon="1.759066">
        <ele>2135.5</ele>
        <time>2020-02-23T13:16:58Z</time>
      </trkpt>
      <trkpt lat="42.553259" lon="1.758993">
        <ele>2137.3</ele>
        <time>2020-02-23T13:17:07Z</time>
      </trkpt>
      <trkpt lat="42.553187" lon="1.758921">
        <ele>2139.8</ele>
        <time>2020-02-23T13:17:15Z</time>
      </trkpt>
      <trkpt lat="42.553107" lon="1.758859">
        <ele>2141.9</ele>
        <time>2020-02-23T13:17:23Z</time>
      </trkpt>
      <trkpt lat="42.553027" lon="1.758799">
        <ele>2143.6</ele>
        <time>2020-02-23T13:17:31Z</time>
      </trkpt>
      <trkpt lat="42.552952" lon="1.758722">
        <ele>2145.3</ele>
        <time>2020-02-23T13:17:39Z</time>
      </trkpt>
      <trkpt lat="42.552865" lon="1.758658">
        <ele>2147.9</ele>
        <time>2020-02-23T13:17:47Z</time>
      </trkpt>
      <trkpt lat="42.552780" lon="1.758583">
        <ele>2149.8</ele>
        <time>2020-02-23T13:17:56Z</time>
      </trkpt>
      <trkpt lat="42.552694" lon="1.758526">
        <ele>2152.6</ele>
        <time>2020-02-23T13:18:04Z</time>
      </trkpt>
      <trkpt lat="42.552622" lon="1.758447">
        <ele>2154.6</ele>
        <time>2020-02-23T13:18:13Z</time>
      </trkpt>
      <trkpt lat="42.552550" lon="1.758374">
        <ele>2156.4</ele>
        <time>2020-02-23T13:18:22Z</time>
      </trkpt>
      <trkpt lat="42.552480" lon="1.758295">
        <ele>2158.1</ele>
        <time>2020-02-23T13:18:30Z</time>
      </trkpt>
      <trkpt lat="42.552418" lon="1.758202">
        <ele>2159.9</ele>
        <time>2020-02-23T13:18:38Z</time>
      </trkpt>
      <trkpt lat="42.552352" lon="1.758112">
        <ele>2162.1</ele>
        <time>2020-02-23T13:18:46Z</time>
      </trkpt>
      <trkpt lat="42.552289" lon="1.758021">
        <ele>2164.2</ele>
        <time>2020-02-23T13:18:56Z</time>
      </trkpt>
      <trkpt lat="42.552212" lon="1.757939">
        <ele>2165.2</ele>
        <time>2020-02-23T13:19:05Z</time>
      </trkpt>
      <trkpt lat="42.552136" lon="1.757868">
        <ele>2167.0</ele>
        <time>2020-02-23T13:19:13Z</time>
      </trkpt>
      <trkpt lat="42.552058" lon="1.757799">
        <ele>2167.0</ele>
        <time>2020-02-23T13:19:21Z</time>
      </trkpt>
      <trkpt lat="42.551993" lon="1.757714">
        <ele>2167.8</ele>
        <time>2020-02-23T13:19:29Z</time>
      </trkpt>
      <trkpt lat="42.551936" lon="1.757609">
        <ele>2169.7</ele>
        <time>2020-02-23T13:19:38Z</time>
      </trkpt>
      <trkpt lat="42.551879" lon="1.757513">
        <ele>2169.7</ele>
        <time>2020-02-23T13:19:46Z</time>
      </trkpt>
      <trkpt lat="42.551807" lon="1.757419">
        <ele>2170.8</ele>
        <time>2020-02-23T13:19:54Z</time>
      </trkpt>
      <trkpt lat="42.551745" lon="1.757325">
        <ele>2171.6</ele>
        <time>2020-02-23T13:20:02Z</time>
      </trkpt>
      <trkpt lat="42.551673" lon="1.757251">
        <ele>2171.6</ele>
        <time>2020-02-23T13:20:10Z</time>
      </trkpt>
      <trkpt lat="42.551596" lon="1.757184">
        <ele>2172.4</ele>
        <time>2020-02-23T13:20:18Z</time>
      </trkpt>
      <trkpt lat="42.551520" lon="1.757112">
        <ele>2173.3</ele>
        <time>2020-02-23T13:20:27Z</time>
      </trkpt>
      <trkpt lat="42.551441" lon="1.757037">
        <ele>2174.2</ele>
        <time>2020-02-23T13:20:36Z</time>
      </trkpt>
      <trkpt lat="42.551365" lon="1.756956">
        <ele>2175.1</ele>
        <time>2020-02-23T13:20:46Z</time>
      </trkpt>
      <trkpt lat="42.551287" lon="1.756871">
        <ele>2175.9</ele>
        <time>2020-02-23T13:20:55Z</time>
      </trkpt>
      <trkpt lat="42.551211" lon="1.756801">
        <ele>2176.0</ele>
        <time>2020-02-23T13:21:02Z</time>
      </trkpt>
      <trkpt lat="42.551138" lon="1.756715">
        <ele>2176.8</ele>
        <time>2020-02-23T13:21:10Z</time>
      </trkpt>
      <trkpt lat="42.551060" lon="1.756627">
        <ele>2177.6</ele>
        <time>2020-02-23T13:21:19Z</time>
      </trkpt>
      <trkpt lat="42.550981" lon="1.756540">
        <ele>2177.7</ele>
        <time>2020-02-23T13:21:29Z</time>
      </trkpt>
      <trkpt lat="42.550910" lon="1.756477">
        <ele>2178.7</ele>
        <time>2020-02-23T13:21:43Z</time>
      </trkpt>
      <trkpt lat="42.550841" lon="1.756395">
        <ele>2178.8</ele>
        <time>2020-02-23T13:22:09Z</time>
      </trkpt>
      <trkpt lat="42.550767" lon="1.756323">
        <ele>2179.6</ele>
        <time>2020-02-23T13:22:19Z</time>
      </trkpt>
      <trkpt lat="42.550691" lon="1.756247">
        <ele>2180.6</ele>
        <time>2020-02-23T13:22:29Z</time>
      </trkpt>
      <trkpt lat="42.550612" lon="1.756177">
        <ele>2181.4</ele>
        <time>2020-02-23T13:22:39Z</time>
      </trkpt>
      <trkpt lat="42.550532" lon="1.756105">
        <ele>2181.6</ele>
        <time>2020-02-23T13:22:49Z</time>
      </trkpt>
      <trkpt lat="42.550450" lon="1.756031">
        <ele>2182.5</ele>
        <time>2020-02-23T13:22:59Z</time>
      </trkpt>
      <trkpt lat="42.550376" lon="1.755963">
        <ele>2182.5</ele>
        <time>2020-02-23T13:23:09Z</time>
      </trkpt>
      <trkpt lat="42.550299" lon="1.755891">
        <ele>2184.1</ele>
        <time>2020-02-23T13:23:19Z</time>
      </trkpt>
      <trkpt lat="42.550221" lon="1.755816">
        <ele>2184.1</ele>
        <time>2020-02-23T13:23:29Z</time>
      </trkpt>
      <trkpt lat="42.550134" lon="1.755743">
        <ele>2184.9</ele>
        <time>2020-02-23T13:23:39Z</time>
      </trkpt>
      <trkpt lat="42.550054" lon="1.755691">
        <ele>2186.6</ele>
        <time>2020-02-23T13:23:48Z</time>
      </trkpt>
      <trkpt lat="42.549965" lon="1.755631">
        <ele>2187.5</ele>
        <time>2020-02-23T13:23:58Z</time>
      </trkpt>
      <trkpt lat="42.549884" lon="1.755572">
        <ele>2187.5</ele>
        <time>2020-02-23T13:24:08Z</time>
      </trkpt>
      <trkpt lat="42.549804" lon="1.755506">
        <ele>2189.2</ele>
        <time>2020-02-23T13:24:17Z</time>
      </trkpt>
      <trkpt lat="42.549722" lon="1.755430">
        <ele>2190.0</ele>
        <time>2020-02-23T13:24:27Z</time>
      </trkpt>
      <trkpt lat="42.549648" lon="1.755349">
        <ele>2190.1</ele>
        <time>2020-02-23T13:24:37Z</time>
      </trkpt>
      <trkpt lat="42.549571" lon="1.755285">
        <ele>2190.9</ele>
        <time>2020-02-23T13:24:47Z</time>
      </trkpt>
      <trkpt lat="42.549492" lon="1.755211">
        <ele>2191.8</ele>
        <time>2020-02-23T13:24:57Z</time>
      </trkpt>
      <trkpt lat="42.549407" lon="1.755141">
        <ele>2192.6</ele>
        <time>2020-02-23T13:25:07Z</time>
      </trkpt>
      <trkpt lat="42.549328" lon="1.755076">
        <ele>2193.6</ele>
        <time>2020-02-23T13:25:16Z</time>
      </trkpt>
      <trkpt lat="42.549247" lon="1.755004">
        <ele>2193.7</ele>
        <time>2020-02-23T13:25:26Z</time>
      </trkpt>
      <trkpt lat="42.549171" lon="1.754929">
        <ele>2193.7</ele>
        <time>2020-02-23T13:25:36Z</time>
      </trkpt>
      <trkpt lat="42.549095" lon="1.754855">
        <ele>2194.7</ele>
        <time>2020-02-23T13:25:45Z</time>
      </trkpt>
      <trkpt lat="42.549021" lon="1.754780">
        <ele>2195.6</ele>
        <time>2020-02-23T13:25:55Z</time>
      </trkpt>
      <trkpt lat="42.548950" lon="1.754697">
        <ele>2195.6</ele>
        <time>2020-02-23T13:26:05Z</time>
      </trkpt>
      <trkpt lat="42.548880" lon="1.754620">
        <ele>2196.5</ele>
        <time>2020-02-23T13:26:14Z</time>
      </trkpt>
      <trkpt lat="42.548814" lon="1.754523">
        <ele>2197.3</ele>
        <time>2020-02-23T13:26:24Z</time>
      </trkpt>
      <trkpt lat="42.548743" lon="1.754427">
        <ele>2198.3</ele>
        <time>2020-02-23T13:26:34Z</time>
      </trkpt>
      <trkpt lat="42.548676" lon="1.754335">
        <ele>2199.1</ele>
        <time>2020-02-23T13:26:44Z</time>
      </trkpt>
      <trkpt lat="42.548623" lon="1.754237">
        <ele>2200.1</ele>
        <time>2020-02-23T13:26:53Z</time>
      </trkpt>
      <trkpt lat="42.548558" lon="1.754139">
        <ele>2201.0</ele>
        <time>2020-02-23T13:27:03Z</time>
      </trkpt>
      <trkpt lat="42.548495" lon="1.754047">
        <ele>2202.6</ele>
        <time>2020-02-23T13:27:12Z</time>
      </trkpt>
      <trkpt lat="42.548429" lon="1.753958">
        <ele>2204.3</ele>
        <time>2020-02-23T13:27:21Z</time>
      </trkpt>
      <trkpt lat="42.548358" lon="1.753865">
        <ele>2206.0</ele>
        <time>2020-02-23T13:27:30Z</time>
      </trkpt>
      <trkpt lat="42.548296" lon="1.753780">
        <ele>2206.9</ele>
        <time>2020-02-23T13:27:38Z</time>
      </trkpt>
      <trkpt lat="42.548236" lon="1.753690">
        <ele>2209.5</ele>
        <time>2020-02-23T13:27:46Z</time>
      </trkpt>
      <trkpt lat="42.548182" lon="1.753573">
        <ele>2211.1</ele>
        <time>2020-02-23T13:27:55Z</time>
      </trkpt>
      <trkpt lat="42.548142" lon="1.753454">
        <ele>2212.2</ele>
        <time>2020-02-23T13:28:04Z</time>
      </trkpt>
      <trkpt lat="42.548097" lon="1.753359">
        <ele>2214.5</ele>
        <time>2020-02-23T13:30:51Z</time>
      </trkpt>
      <trkpt lat="42.548023" lon="1.753272">
        <ele>2216.3</ele>
        <time>2020-02-23T13:31:01Z</time>
      </trkpt>
      <trkpt lat="42.547947" lon="1.753184">
        <ele>2218.1</ele>
        <time>2020-02-23T13:31:12Z</time>
      </trkpt>
      <trkpt lat="42.547882" lon="1.753097">
        <ele>2220.5</ele>
        <time>2020-02-23T13:31:23Z</time>
      </trkpt>
      <trkpt lat="42.547816" lon="1.753014">
        <ele>2223.2</ele>
        <time>2020-02-23T13:31:34Z</time>
      </trkpt>
      <trkpt lat="42.547744" lon="1.752930">
        <ele>2225.9</ele>
        <time>2020-02-23T13:31:44Z</time>
      </trkpt>
      <trkpt lat="42.547681" lon="1.752826">
        <ele>2228.3</ele>
        <time>2020-02-23T13:31:55Z</time>
      </trkpt>
      <trkpt lat="42.547617" lon="1.752742">
        <ele>2232.0</ele>
        <time>2020-02-23T13:32:06Z</time>
      </trkpt>
      <trkpt lat="42.547546" lon="1.752666">
        <ele>2234.4</ele>
        <time>2020-02-23T13:32:17Z</time>
      </trkpt>
      <trkpt lat="42.547476" lon="1.752589">
        <ele>2237.4</ele>
        <time>2020-02-23T13:32:27Z</time>
      </trkpt>
      <trkpt lat="42.547401" lon="1.752500">
        <ele>2239.3</ele>
        <time>2020-02-23T13:32:37Z</time>
      </trkpt>
      <trkpt lat="42.547331" lon="1.752413">
        <ele>2242.1</ele>
        <time>2020-02-23T13:32:47Z</time>
      </trkpt>
      <trkpt lat="42.547260" lon="1.752324">
        <ele>2244.7</ele>
        <time>2020-02-23T13:32:57Z</time>
      </trkpt>
      <trkpt lat="42.547196" lon="1.752227">
        <ele>2247.2</ele>
        <time>2020-02-23T13:33:06Z</time>
      </trkpt>
      <trkpt lat="42.547120" lon="1.752153">
        <ele>2250.0</ele>
        <time>2020-02-23T13:33:15Z</time>
      </trkpt>
      <trkpt lat="42.547028" lon="1.752128">
        <ele>2251.8</ele>
        <time>2020-02-23T13:33:26Z</time>
      </trkpt>
      <trkpt lat="42.546950" lon="1.752109">
        <ele>2254.7</ele>
        <time>2020-02-23T13:33:36Z</time>
      </trkpt>
      <trkpt lat="42.546860" lon="1.752067">
        <ele>2256.4</ele>
        <time>2020-02-23T13:33:47Z</time>
      </trkpt>
      <trkpt lat="42.546780" lon="1.752017">
        <ele>2258.2</ele>
        <time>2020-02-23T13:33:57Z</time>
      </trkpt>
      <trkpt lat="42.546697" lon="1.751946">
        <ele>2259.9</ele>
        <time>2020-02-23T13:34:07Z</time>
      </trkpt>
      <trkpt lat="42.546613" lon="1.751892">
        <ele>2261.6</ele>
        <time>2020-02-23T13:34:18Z</time>
      </trkpt>
      <trkpt lat="42.546523" lon="1.751865">
        <ele>2263.4</ele>
        <time>2020-02-23T13:34:28Z</time>
      </trkpt>
      <trkpt lat="42.546429" lon="1.751845">
        <ele>2265.2</ele>
        <time>2020-02-23T13:34:37Z</time>
      </trkpt>
      <trkpt lat="42.546334" lon="1.751833">
        <ele>2267.4</ele>
        <time>2020-02-23T13:34:47Z</time>
      </trkpt>
      <trkpt lat="42.546248" lon="1.751822">
        <ele>2269.9</ele>
        <time>2020-02-23T13:34:58Z</time>
      </trkpt>
      <trkpt lat="42.546154" lon="1.751817">
        <ele>2273.8</ele>
        <time>2020-02-23T13:35:08Z</time>
      </trkpt>
      <trkpt lat="42.546060" lon="1.751790">
        <ele>2276.6</ele>
        <time>2020-02-23T13:35:19Z</time>
      </trkpt>
      <trkpt lat="42.545970" lon="1.751774">
        <ele>2280.0</ele>
        <time>2020-02-23T13:35:29Z</time>
      </trkpt>
      <trkpt lat="42.545877" lon="1.751803">
        <ele>2280.8</ele>
        <time>2020-02-23T13:35:38Z</time>
      </trkpt>
      <trkpt lat="42.545787" lon="1.751815">
        <ele>2282.7</ele>
        <time>2020-02-23T13:35:47Z</time>
      </trkpt>
      <trkpt lat="42.545691" lon="1.751798">
        <ele>2286.4</ele>
        <time>2020-02-23T13:35:57Z</time>
      </trkpt>
      <trkpt lat="42.545598" lon="1.751764">
        <ele>2289.1</ele>
        <time>2020-02-23T13:36:07Z</time>
      </trkpt>
      <trkpt lat="42.545495" lon="1.751744">
        <ele>2291.3</ele>
        <time>2020-02-23T13:36:17Z</time>
      </trkpt>
      <trkpt lat="42.545402" lon="1.751710">
        <ele>2293.2</ele>
        <time>2020-02-23T13:36:27Z</time>
      </trkpt>
      <trkpt lat="42.545312" lon="1.751666">
        <ele>2296.1</ele>
        <time>2020-02-23T13:36:37Z</time>
      </trkpt>
      <trkpt lat="42.545224" lon="1.751602">
        <ele>2298.9</ele>
        <time>2020-02-23T13:36:47Z</time>
      </trkpt>
      <trkpt lat="42.545147" lon="1.751525">
        <ele>2300.9</ele>
        <time>2020-02-23T13:36:56Z</time>
      </trkpt>
      <trkpt lat="42.545068" lon="1.751445">
        <ele>2303.5</ele>
        <time>2020-02-23T13:37:05Z</time>
      </trkpt>
      <trkpt lat="42.544999" lon="1.751351">
        <ele>2306.3</ele>
        <time>2020-02-23T13:37:20Z</time>
      </trkpt>
      <trkpt lat="42.544936" lon="1.751258">
        <ele>2308.0</ele>
        <time>2020-02-23T13:37:29Z</time>
      </trkpt>
      <trkpt lat="42.544864" lon="1.751160">
        <ele>2310.8</ele>
        <time>2020-02-23T13:37:39Z</time>
      </trkpt>
      <trkpt lat="42.544781" lon="1.751089">
        <ele>2313.6</ele>
        <time>2020-02-23T13:37:49Z</time>
      </trkpt>
      <trkpt lat="42.544702" lon="1.751021">
        <ele>2317.4</ele>
        <time>2020-02-23T13:37:59Z</time>
      </trkpt>
      <trkpt lat="42.544620" lon="1.750966">
        <ele>2320.4</ele>
        <time>2020-02-23T13:38:09Z</time>
      </trkpt>
      <trkpt lat="42.544538" lon="1.750910">
        <ele>2324.9</ele>
        <time>2020-02-23T13:38:20Z</time>
      </trkpt>
      <trkpt lat="42.544455" lon="1.750859">
        <ele>2329.4</ele>
        <time>2020-02-23T13:38:31Z</time>
      </trkpt>
      <trkpt lat="42.544382" lon="1.750799">
        <ele>2333.4</ele>
        <time>2020-02-23T13:38:42Z</time>
      </trkpt>
      <trkpt lat="42.544304" lon="1.750735">
        <ele>2337.0</ele>
        <time>2020-02-23T13:38:57Z</time>
      </trkpt>
      <trkpt lat="42.544226" lon="1.750674">
        <ele>2340.6</ele>
        <time>2020-02-23T13:39:24Z</time>
      </trkpt>
      <trkpt lat="42.544145" lon="1.750617">
        <ele>2344.4</ele>
        <time>2020-02-23T13:39:37Z</time>
      </trkpt>
      <trkpt lat="42.544065" lon="1.750557">
        <ele>2349.0</ele>
        <time>2020-02-23T13:39:50Z</time>
      </trkpt>
      <trkpt lat="42.543978" lon="1.750490">
        <ele>2351.9</ele>
        <time>2020-02-23T13:40:01Z</time>
      </trkpt>
      <trkpt lat="42.543892" lon="1.750429">
        <ele>2355.6</ele>
        <time>2020-02-23T13:40:12Z</time>
      </trkpt>
      <trkpt lat="42.543809" lon="1.750371">
        <ele>2359.0</ele>
        <time>2020-02-23T13:40:23Z</time>
      </trkpt>
      <trkpt lat="42.543715" lon="1.750310">
        <ele>2363.1</ele>
        <time>2020-02-23T13:40:36Z</time>
      </trkpt>
      <trkpt lat="42.543642" lon="1.750235">
        <ele>2367.5</ele>
        <time>2020-02-23T13:40:52Z</time>
      </trkpt>
      <trkpt lat="42.543556" lon="1.750191">
        <ele>2370.2</ele>
        <time>2020-02-23T13:41:03Z</time>
      </trkpt>
      <trkpt lat="42.543480" lon="1.750116">
        <ele>2372.1</ele>
        <time>2020-02-23T13:41:13Z</time>
      </trkpt>
      <trkpt lat="42.543397" lon="1.750050">
        <ele>2374.9</ele>
        <time>2020-02-23T13:41:24Z</time>
      </trkpt>
      <trkpt lat="42.543310" lon="1.750011">
        <ele>2377.4</ele>
        <time>2020-02-23T13:41:35Z</time>
      </trkpt>
      <trkpt lat="42.543223" lon="1.749968">
        <ele>2380.4</ele>
        <time>2020-02-23T13:41:45Z</time>
      </trkpt>
      <trkpt lat="42.543136" lon="1.749928">
        <ele>2384.1</ele>
        <time>2020-02-23T13:41:56Z</time>
      </trkpt>
      <trkpt lat="42.543041" lon="1.749918">
        <ele>2387.7</ele>
        <time>2020-02-23T13:42:07Z</time>
      </trkpt>
      <trkpt lat="42.542952" lon="1.749938">
        <ele>2390.4</ele>
        <time>2020-02-23T13:42:18Z</time>
      </trkpt>
      <trkpt lat="42.542864" lon="1.749964">
        <ele>2394.0</ele>
        <time>2020-02-23T13:42:28Z</time>
      </trkpt>
      <trkpt lat="42.542773" lon="1.749994">
        <ele>2397.3</ele>
        <time>2020-02-23T13:42:39Z</time>
      </trkpt>
      <trkpt lat="42.542687" lon="1.750007">
        <ele>2400.2</ele>
        <time>2020-02-23T13:42:50Z</time>
      </trkpt>
      <trkpt lat="42.542589" lon="1.750008">
        <ele>2403.7</ele>
        <time>2020-02-23T13:43:01Z</time>
      </trkpt>
      <trkpt lat="42.542498" lon="1.750016">
        <ele>2406.5</ele>
        <time>2020-02-23T13:43:11Z</time>
      </trkpt>
      <trkpt lat="42.542404" lon="1.750040">
        <ele>2409.3</ele>
        <time>2020-02-23T13:43:23Z</time>
      </trkpt>
      <trkpt lat="42.542316" lon="1.750067">
        <ele>2412.4</ele>
        <time>2020-02-23T13:43:37Z</time>
      </trkpt>
      <trkpt lat="42.542222" lon="1.750070">
        <ele>2415.3</ele>
        <time>2020-02-23T13:43:46Z</time>
      </trkpt>
      <trkpt lat="42.542126" lon="1.750057">
        <ele>2419.3</ele>
        <time>2020-02-23T13:43:55Z</time>
      </trkpt>
      <trkpt lat="42.542041" lon="1.750019">
        <ele>2423.2</ele>
        <time>2020-02-23T13:44:04Z</time>
      </trkpt>
      <trkpt lat="42.541947" lon="1.750000">
        <ele>2427.2</ele>
        <time>2020-02-23T13:44:14Z</time>
      </trkpt>
      <trkpt lat="42.541854" lon="1.750002">
        <ele>2431.0</ele>
        <time>2020-02-23T13:44:23Z</time>
      </trkpt>
      <trkpt lat="42.541760" lon="1.749976">
        <ele>2434.7</ele>
        <time>2020-02-23T13:44:32Z</time>
      </trkpt>
      <trkpt lat="42.541667" lon="1.749955">
        <ele>2437.4</ele>
        <time>2020-02-23T13:44:41Z</time>
      </trkpt>
      <trkpt lat="42.541568" lon="1.749970">
        <ele>2440.2</ele>
        <time>2020-02-23T13:44:50Z</time>
      </trkpt>
      <trkpt lat="42.541474" lon="1.749966">
        <ele>2443.0</ele>
        <time>2020-02-23T13:44:58Z</time>
      </trkpt>
      <trkpt lat="42.541380" lon="1.749973">
        <ele>2445.3</ele>
        <time>2020-02-23T13:45:06Z</time>
      </trkpt>
      <trkpt lat="42.541285" lon="1.749988">
        <ele>2447.1</ele>
        <time>2020-02-23T13:45:15Z</time>
      </trkpt>
      <trkpt lat="42.541194" lon="1.750019">
        <ele>2448.9</ele>
        <time>2020-02-23T13:45:23Z</time>
      </trkpt>
      <trkpt lat="42.541096" lon="1.750035">
        <ele>2448.9</ele>
        <time>2020-02-23T13:45:32Z</time>
      </trkpt>
      <trkpt lat="42.541000" lon="1.750011">
        <ele>2449.0</ele>
        <time>2020-02-23T13:45:41Z</time>
      </trkpt>
      <trkpt lat="42.540905" lon="1.749974">
        <ele>2449.9</ele>
        <time>2020-02-23T13:45:50Z</time>
      </trkpt>
      <trkpt lat="42.540811" lon="1.749935">
        <ele>2449.9</ele>
        <time>2020-02-23T13:46:00Z</time>
      </trkpt>
      <trkpt lat="42.540727" lon="1.749890">
        <ele>2450.8</ele>
        <time>2020-02-23T13:46:25Z</time>
      </trkpt>
      <trkpt lat="42.540640" lon="1.749827">
        <ele>2450.8</ele>
        <time>2020-02-23T13:46:37Z</time>
      </trkpt>
      <trkpt lat="42.540562" lon="1.749753">
        <ele>2451.5</ele>
        <time>2020-02-23T13:46:48Z</time>
      </trkpt>
      <trkpt lat="42.540492" lon="1.749685">
        <ele>2452.4</ele>
        <time>2020-02-23T13:46:58Z</time>
      </trkpt>
      <trkpt lat="42.540410" lon="1.749637">
        <ele>2453.3</ele>
        <time>2020-02-23T13:47:07Z</time>
      </trkpt>
      <trkpt lat="42.540324" lon="1.749577">
        <ele>2454.4</ele>
        <time>2020-02-23T13:47:17Z</time>
      </trkpt>
      <trkpt lat="42.540239" lon="1.749517">
        <ele>2456.1</ele>
        <time>2020-02-23T13:47:27Z</time>
      </trkpt>
      <trkpt lat="42.540150" lon="1.749475">
        <ele>2458.0</ele>
        <time>2020-02-23T13:47:36Z</time>
      </trkpt>
      <trkpt lat="42.540071" lon="1.749413">
        <ele>2458.1</ele>
        <time>2020-02-23T13:47:45Z</time>
      </trkpt>
      <trkpt lat="42.539997" lon="1.749340">
        <ele>2458.9</ele>
        <time>2020-02-23T13:47:56Z</time>
      </trkpt>
      <trkpt lat="42.539908" lon="1.749268">
        <ele>2458.9</ele>
        <time>2020-02-23T13:48:06Z</time>
      </trkpt>
      <trkpt lat="42.539869" lon="1.749260">
        <ele>2461.1</ele>
        <time>2020-02-23T13:49:52Z</time>
      </trkpt>
      <trkpt lat="42.539782" lon="1.749276">
        <ele>2461.2</ele>
        <time>2020-02-23T13:50:02Z</time>
      </trkpt>
      <trkpt lat="42.539685" lon="1.749305">
        <ele>2461.1</ele>
        <time>2020-02-23T13:50:12Z</time>
      </trkpt>
      <trkpt lat="42.539596" lon="1.749285">
        <ele>2462.0</ele>
        <time>2020-02-23T13:50:22Z</time>
      </trkpt>
      <trkpt lat="42.539500" lon="1.749267">
        <ele>2462.9</ele>
        <time>2020-02-23T13:50:32Z</time>
      </trkpt>
      <trkpt lat="42.539416" lon="1.749245">
        <ele>2463.5</ele>
        <time>2020-02-23T13:50:47Z</time>
      </trkpt>
      <trkpt lat="42.539325" lon="1.749223">
        <ele>2466.9</ele>
        <time>2020-02-23T13:50:55Z</time>
      </trkpt>
      <trkpt lat="42.539232" lon="1.749221">
        <ele>2466.8</ele>
        <time>2020-02-23T13:51:05Z</time>
      </trkpt>
      <trkpt lat="42.539136" lon="1.749213">
        <ele>2469.6</ele>
        <time>2020-02-23T13:51:16Z</time>
      </trkpt>
      <trkpt lat="42.539041" lon="1.749194">
        <ele>2473.6</ele>
        <time>2020-02-23T13:51:27Z</time>
      </trkpt>
      <trkpt lat="42.538949" lon="1.749175">
        <ele>2477.3</ele>
        <time>2020-02-23T13:51:45Z</time>
      </trkpt>
      <trkpt lat="42.538863" lon="1.749152">
        <ele>2480.3</ele>
        <time>2020-02-23T13:51:55Z</time>
      </trkpt>
      <trkpt lat="42.538761" lon="1.749147">
        <ele>2483.0</ele>
        <time>2020-02-23T13:52:08Z</time>
      </trkpt>
      <trkpt lat="42.538666" lon="1.749142">
        <ele>2486.6</ele>
        <time>2020-02-23T13:52:20Z</time>
      </trkpt>
      <trkpt lat="42.538592" lon="1.749175">
        <ele>2490.6</ele>
        <time>2020-02-23T13:52:32Z</time>
      </trkpt>
      <trkpt lat="42.538505" lon="1.749141">
        <ele>2493.3</ele>
        <time>2020-02-23T13:52:44Z</time>
      </trkpt>
      <trkpt lat="42.538416" lon="1.749168">
        <ele>2496.1</ele>
        <time>2020-02-23T13:52:56Z</time>
      </trkpt>
      <trkpt lat="42.538331" lon="1.749200">
        <ele>2497.8</ele>
        <time>2020-02-23T13:53:07Z</time>
      </trkpt>
      <trkpt lat="42.538242" lon="1.749187">
        <ele>2499.8</ele>
        <time>2020-02-23T13:53:16Z</time>
      </trkpt>
      <trkpt lat="42.538147" lon="1.749164">
        <ele>2501.7</ele>
        <time>2020-02-23T13:53:25Z</time>
      </trkpt>
      <trkpt lat="42.538053" lon="1.749151">
        <ele>2505.3</ele>
        <time>2020-02-23T13:53:35Z</time>
      </trkpt>
      <trkpt lat="42.537964" lon="1.749128">
        <ele>2507.1</ele>
        <time>2020-02-23T13:53:44Z</time>
      </trkpt>
      <trkpt lat="42.537870" lon="1.749121">
        <ele>2508.7</ele>
        <time>2020-02-23T13:53:54Z</time>
      </trkpt>
      <trkpt lat="42.537778" lon="1.749109">
        <ele>2510.4</ele>
        <time>2020-02-23T13:54:03Z</time>
      </trkpt>
      <trkpt lat="42.537679" lon="1.749101">
        <ele>2513.9</ele>
        <time>2020-02-23T13:54:13Z</time>
      </trkpt>
      <trkpt lat="42.537594" lon="1.749092">
        <ele>2516.4</ele>
        <time>2020-02-23T13:54:29Z</time>
      </trkpt>
      <trkpt lat="42.537514" lon="1.749141">
        <ele>2519.3</ele>
        <time>2020-02-23T13:54:38Z</time>
      </trkpt>
      <trkpt lat="42.537435" lon="1.749195">
        <ele>2521.5</ele>
        <time>2020-02-23T13:54:46Z</time>
      </trkpt>
      <trkpt lat="42.537346" lon="1.749239">
        <ele>2524.4</ele>
        <time>2020-02-23T13:54:55Z</time>
      </trkpt>
      <trkpt lat="42.537268" lon="1.749290">
        <ele>2527.1</ele>
        <time>2020-02-23T13:55:08Z</time>
      </trkpt>
      <trkpt lat="42.537190" lon="1.749351">
        <ele>2528.7</ele>
        <time>2020-02-23T13:55:19Z</time>
      </trkpt>
      <trkpt lat="42.537104" lon="1.749406">
        <ele>2531.1</ele>
        <time>2020-02-23T13:55:28Z</time>
      </trkpt>
      <trkpt lat="42.537013" lon="1.749443">
        <ele>2533.9</ele>
        <time>2020-02-23T13:55:36Z</time>
      </trkpt>
      <trkpt lat="42.536924" lon="1.749494">
        <ele>2538.7</ele>
        <time>2020-02-23T13:55:44Z</time>
      </trkpt>
      <trkpt lat="42.536825" lon="1.749523">
        <ele>2541.5</ele>
        <time>2020-02-23T13:55:52Z</time>
      </trkpt>
      <trkpt lat="42.536723" lon="1.749540">
        <ele>2546.3</ele>
        <time>2020-02-23T13:56:01Z</time>
      </trkpt>
      <trkpt lat="42.536630" lon="1.749584">
        <ele>2549.5</ele>
        <time>2020-02-23T13:56:10Z</time>
      </trkpt>
      <trkpt lat="42.536539" lon="1.749627">
        <ele>2553.2</ele>
        <time>2020-02-23T13:56:19Z</time>
      </trkpt>
      <trkpt lat="42.536451" lon="1.749677">
        <ele>2557.6</ele>
        <time>2020-02-23T13:56:28Z</time>
      </trkpt>
      <trkpt lat="42.536360" lon="1.749702">
        <ele>2561.3</ele>
        <time>2020-02-23T13:56:37Z</time>
      </trkpt>
      <trkpt lat="42.536267" lon="1.749719">
        <ele>2564.1</ele>
        <time>2020-02-23T13:56:46Z</time>
      </trkpt>
      <trkpt lat="42.536179" lon="1.749744">
        <ele>2566.7</ele>
        <time>2020-02-23T13:56:56Z</time>
      </trkpt>
      <trkpt lat="42.536096" lon="1.749800">
        <ele>2569.8</ele>
        <time>2020-02-23T13:57:07Z</time>
      </trkpt>
      <trkpt lat="42.536016" lon="1.749858">
        <ele>2573.4</ele>
        <time>2020-02-23T13:57:16Z</time>
      </trkpt>
      <trkpt lat="42.535936" lon="1.749928">
        <ele>2577.1</ele>
        <time>2020-02-23T13:57:26Z</time>
      </trkpt>
      <trkpt lat="42.535858" lon="1.749999">
        <ele>2580.8</ele>
        <time>2020-02-23T13:57:37Z</time>
      </trkpt>
      <trkpt lat="42.535781" lon="1.750060">
        <ele>2583.8</ele>
        <time>2020-02-23T13:57:47Z</time>
      </trkpt>
      <trkpt lat="42.535703" lon="1.750117">
        <ele>2587.6</ele>
        <time>2020-02-23T13:57:57Z</time>
      </trkpt>
      <trkpt lat="42.535625" lon="1.750185">
        <ele>2590.4</ele>
        <time>2020-02-23T13:58:08Z</time>
      </trkpt>
      <trkpt lat="42.535555" lon="1.750255">
        <ele>2593.7</ele>
        <time>2020-02-23T13:58:18Z</time>
      </trkpt>
      <trkpt lat="42.535476" lon="1.750307">
        <ele>2597.1</ele>
        <time>2020-02-23T13:58:29Z</time>
      </trkpt>
      <trkpt lat="42.535401" lon="1.750388">
        <ele>2600.1</ele>
        <time>2020-02-23T13:58:39Z</time>
      </trkpt>
      <trkpt lat="42.535315" lon="1.750464">
        <ele>2602.8</ele>
        <time>2020-02-23T13:58:50Z</time>
      </trkpt>
      <trkpt lat="42.535231" lon="1.750528">
        <ele>2607.9</ele>
        <time>2020-02-23T13:59:01Z</time>
      </trkpt>
      <trkpt lat="42.535144" lon="1.750579">
        <ele>2612.0</ele>
        <time>2020-02-23T13:59:13Z</time>
      </trkpt>
      <trkpt lat="42.535062" lon="1.750611">
        <ele>2616.3</ele>
        <time>2020-02-23T13:59:24Z</time>
      </trkpt>
      <trkpt lat="42.534976" lon="1.750645">
        <ele>2619.6</ele>
        <time>2020-02-23T13:59:46Z</time>
      </trkpt>
      <trkpt lat="42.534898" lon="1.750708">
        <ele>2625.3</ele>
        <time>2020-02-23T13:59:58Z</time>
      </trkpt>
      <trkpt lat="42.534832" lon="1.750796">
        <ele>2629.4</ele>
        <time>2020-02-23T14:00:07Z</time>
      </trkpt>
      <trkpt lat="42.534775" lon="1.750890">
        <ele>2633.1</ele>
        <time>2020-02-23T14:00:16Z</time>
      </trkpt>
      <trkpt lat="42.534696" lon="1.750966">
        <ele>2636.9</ele>
        <time>2020-02-23T14:00:25Z</time>
      </trkpt>
      <trkpt lat="42.534618" lon="1.751030">
        <ele>2639.7</ele>
        <time>2020-02-23T14:00:34Z</time>
      </trkpt>
      <trkpt lat="42.534535" lon="1.751069">
        <ele>2642.6</ele>
        <time>2020-02-23T14:00:53Z</time>
      </trkpt>
      <trkpt lat="42.534449" lon="1.751118">
        <ele>2645.2</ele>
        <time>2020-02-23T14:01:01Z</time>
      </trkpt>
      <trkpt lat="42.534358" lon="1.751157">
        <ele>2649.1</ele>
        <time>2020-02-23T14:01:11Z</time>
      </trkpt>
      <trkpt lat="42.534268" lon="1.751190">
        <ele>2652.8</ele>
        <time>2020-02-23T14:01:30Z</time>
      </trkpt>
      <trkpt lat="42.534171" lon="1.751222">
        <ele>2657.5</ele>
        <time>2020-02-23T14:01:41Z</time>
      </trkpt>
      <trkpt lat="42.534075" lon="1.751242">
        <ele>2661.8</ele>
        <time>2020-02-23T14:01:52Z</time>
      </trkpt>
      <trkpt lat="42.534007" lon="1.751173">
        <ele>2665.6</ele>
        <time>2020-02-23T14:06:24Z</time>
      </trkpt>
      <trkpt lat="42.533917" lon="1.751150">
        <ele>2662.6</ele>
        <time>2020-02-23T14:08:47Z</time>
      </trkpt>
      <trkpt lat="42.533833" lon="1.751207">
        <ele>2662.6</ele>
        <time>2020-02-23T14:09:00Z</time>
      </trkpt>
      <trkpt lat="42.533750" lon="1.751266">
        <ele>2662.6</ele>
        <time>2020-02-23T14:09:12Z</time>
      </trkpt>
      <trkpt lat="42.533660" lon="1.751301">
        <ele>2663.4</ele>
        <time>2020-02-23T14:09:23Z</time>
      </trkpt>
      <trkpt lat="42.533565" lon="1.751315">
        <ele>2665.0</ele>
        <time>2020-02-23T14:09:34Z</time>
      </trkpt>
      <trkpt lat="42.533464" lon="1.751321">
        <ele>2665.8</ele>
        <time>2020-02-23T14:09:45Z</time>
      </trkpt>
      <trkpt lat="42.533364" lon="1.751323">
        <ele>2667.5</ele>
        <time>2020-02-23T14:09:56Z</time>
      </trkpt>
      <trkpt lat="42.533266" lon="1.751312">
        <ele>2669.2</ele>
        <time>2020-02-23T14:10:06Z</time>
      </trkpt>
      <trkpt lat="42.533168" lon="1.751308">
        <ele>2671.1</ele>
        <time>2020-02-23T14:10:16Z</time>
      </trkpt>
      <trkpt lat="42.533079" lon="1.751312">
        <ele>2672.6</ele>
        <time>2020-02-23T14:10:25Z</time>
      </trkpt>
      <trkpt lat="42.532984" lon="1.751308">
        <ele>2674.5</ele>
        <time>2020-02-23T14:10:35Z</time>
      </trkpt>
      <trkpt lat="42.532901" lon="1.751347">
        <ele>2677.1</ele>
        <time>2020-02-23T14:10:46Z</time>
      </trkpt>
      <trkpt lat="42.532797" lon="1.751376">
        <ele>2681.0</ele>
        <time>2020-02-23T14:10:57Z</time>
      </trkpt>
      <trkpt lat="42.532705" lon="1.751428">
        <ele>2683.5</ele>
        <time>2020-02-23T14:11:09Z</time>
      </trkpt>
      <trkpt lat="42.532623" lon="1.751491">
        <ele>2687.2</ele>
        <time>2020-02-23T14:11:21Z</time>
      </trkpt>
      <trkpt lat="42.532552" lon="1.751560">
        <ele>2690.7</ele>
        <time>2020-02-23T14:11:40Z</time>
      </trkpt>
      <trkpt lat="42.532478" lon="1.751642">
        <ele>2694.6</ele>
        <time>2020-02-23T14:12:01Z</time>
      </trkpt>
      <trkpt lat="42.532406" lon="1.751706">
        <ele>2698.1</ele>
        <time>2020-02-23T14:12:34Z</time>
      </trkpt>
      <trkpt lat="42.532366" lon="1.751734">
        <ele>2700.5</ele>
        <time>2020-02-23T14:13:28Z</time>
      </trkpt>
      <trkpt lat="42.532347" lon="1.751717">
        <ele>2701.0</ele>
        <time>2020-02-23T14:18:02Z</time>
      </trkpt>
      <trkpt lat="42.532277" lon="1.751792">
        <ele>2702.6</ele>
        <time>2020-02-23T14:18:30Z</time>
      </trkpt>
      <trkpt lat="42.532206" lon="1.751862">
        <ele>2702.5</ele>
        <time>2020-02-23T14:18:45Z</time>
      </trkpt>
      <trkpt lat="42.532132" lon="1.751906">
        <ele>2703.6</ele>
        <time>2020-02-23T14:18:59Z</time>
      </trkpt>
      <trkpt lat="42.532064" lon="1.751946">
        <ele>2703.6</ele>
        <time>2020-02-23T14:19:16Z</time>
      </trkpt>
      <trkpt lat="42.531972" lon="1.751992">
        <ele>2704.4</ele>
        <time>2020-02-23T14:19:32Z</time>
      </trkpt>
      <trkpt lat="42.531893" lon="1.752036">
        <ele>2704.4</ele>
        <time>2020-02-23T14:19:51Z</time>
      </trkpt>
      <trkpt lat="42.531809" lon="1.752075">
        <ele>2704.4</ele>
        <time>2020-02-23T14:20:12Z</time>
      </trkpt>
      <trkpt lat="42.531734" lon="1.752105">
        <ele>2706.0</ele>
        <time>2020-02-23T14:20:33Z</time>
      </trkpt>
      <trkpt lat="42.531650" lon="1.752135">
        <ele>2708.3</ele>
        <time>2020-02-23T14:21:10Z</time>
      </trkpt>
      <trkpt lat="42.531568" lon="1.752182">
        <ele>2708.3</ele>
        <time>2020-02-23T14:21:28Z</time>
      </trkpt>
      <trkpt lat="42.531481" lon="1.752207">
        <ele>2708.3</ele>
        <time>2020-02-23T14:21:40Z</time>
      </trkpt>
      <trkpt lat="42.531415" lon="1.752284">
        <ele>2708.3</ele>
        <time>2020-02-23T14:21:52Z</time>
      </trkpt>
      <trkpt lat="42.531368" lon="1.752345">
        <ele>2707.4</ele>
        <time>2020-02-23T14:23:36Z</time>
        <cmt>Pic dels Pedrons</cmt>
        <sym>Waypoint</sym>
      </trkpt>
    </trkseg>
  </trk>
</gpx>

